Terminal Aerodrome Forecast
Issued by NWS Sioux Falls, SD

Home | Current Version | Previous Version | Text Only | Print | Product List | Glossary Off
Versions: 1 2 3 4 5 6 7 8 9 10 11 12 13 14 15

000
FTUS43 KFSD 221124
TAFHON
TAF
KHON 221124Z 2212/2312 16014G23KT P6SM SCT070 OVC200
     FM221500 16017G27KT P6SM BKN035 OVC150
     FM230500 17014KT P6SM SHRA VCTS OVC035CB
     FM230900 20010KT P6SM SHRA VCTS OVC060CB
     FM231000 20008KT P6SM OVC060=

USA.gov is the U.S. government's official web portal to all federal, state and local government web resources and services.